sensor_id;sensor_type;location;lat;lon;timestamp;P1;durP1;ratioP1;P2;durP2;ratioP2
48363;SDS011;34170;54.364;18.582;2023-05-07T00:00:22;9.65;;;3.72;;
48363;SDS011;34170;54.364;18.582;2023-05-07T00:03:09;14.95;;;4.45;;
48363;SDS011;34170;54.364;18.582;2023-05-07T00:05:38;7.55;;;3.67;;
48363;SDS011;34170;54.364;18.582;2023-05-07T00:08:06;10.27;;;4.28;;
48363;SDS011;34170;54.364;18.582;2023-05-07T00:10:33;7.30;;;3.65;;
48363;SDS011;34170;54.364;18.582;2023-05-07T00:13:01;13.05;;;5.20;;
48363;SDS011;34170;54.364;18.582;2023-05-07T00:15:28;9.48;;;3.45;;
48363;SDS011;34170;54.364;18.582;2023-05-07T00:17:55;7.75;;;4.10;;
48363;SDS011;34170;54.364;18.582;2023-05-07T00:20:24;8.38;;;3.45;;
48363;SDS011;34170;54.364;18.582;2023-05-07T00:22:51;9.80;;;4.25;;
48363;SDS011;34170;54.364;18.582;2023-05-07T00:25:19;7.90;;;3.72;;
48363;SDS011;34170;54.364;18.582;2023-05-07T00:27:46;7.68;;;4.15;;
48363;SDS011;34170;54.364;18.582;2023-05-07T00:30:14;6.93;;;3.78;;
48363;SDS011;34170;54.364;18.582;2023-05-07T00:32:41;11.63;;;4.10;;
48363;SDS011;34170;54.364;18.582;2023-05-07T00:35:09;7.97;;;4.20;;
48363;SDS011;34170;54.364;18.582;2023-05-07T00:37:37;12.23;;;4.38;;
48363;SDS011;34170;54.364;18.582;2023-05-07T00:40:04;11.35;;;4.03;;
48363;SDS011;34170;54.364;18.582;2023-05-07T00:42:34;7.65;;;3.70;;
48363;SDS011;34170;54.364;18.582;2023-05-07T00:45:01;9.80;;;4.78;;
48363;SDS011;34170;54.364;18.582;2023-05-07T00:47:30;8.40;;;3.95;;
48363;SDS011;34170;54.364;18.582;2023-05-07T00:49:58;10.60;;;4.05;;
48363;SDS011;34170;54.364;18.582;2023-05-07T00:52:26;9.50;;;4.15;;
48363;SDS011;34170;54.364;18.582;2023-05-07T00:54:54;13.50;;;4.32;;
48363;SDS011;34170;54.364;18.582;2023-05-07T00:57:22;13.65;;;5.03;;
48363;SDS011;34170;54.364;18.582;2023-05-07T00:59:52;12.25;;;4.45;;
48363;SDS011;34170;54.364;18.582;2023-05-07T01:02:19;8.23;;;4.75;;
48363;SDS011;34170;54.364;18.582;2023-05-07T01:04:47;13.23;;;4.55;;
48363;SDS011;34170;54.364;18.582;2023-05-07T01:07:15;15.15;;;4.18;;
48363;SDS011;34170;54.364;18.582;2023-05-07T01:09:42;13.30;;;5.22;;
48363;SDS011;34170;54.364;18.582;2023-05-07T01:12:10;13.88;;;5.05;;
48363;SDS011;34170;54.364;18.582;2023-05-07T01:14:37;12.73;;;5.18;;
48363;SDS011;34170;54.364;18.582;2023-05-07T01:17:05;9.43;;;4.40;;
48363;SDS011;34170;54.364;18.582;2023-05-07T01:19:33;11.18;;;4.63;;
48363;SDS011;34170;54.364;18.582;2023-05-07T01:22:07;11.38;;;5.03;;
48363;SDS011;34170;54.364;18.582;2023-05-07T01:24:45;12.18;;;4.18;;
48363;SDS011;34170;54.364;18.582;2023-05-07T01:27:14;11.80;;;4.88;;
48363;SDS011;34170;54.364;18.582;2023-05-07T01:29:42;10.80;;;4.18;;
48363;SDS011;34170;54.364;18.582;2023-05-07T01:32:10;10.80;;;4.55;;
48363;SDS011;34170;54.364;18.582;2023-05-07T01:34:40;9.23;;;4.72;;
48363;SDS011;34170;54.364;18.582;2023-05-07T01:37:07;9.65;;;4.50;;
48363;SDS011;34170;54.364;18.582;2023-05-07T01:39:38;11.60;;;4.78;;
48363;SDS011;34170;54.364;18.582;2023-05-07T01:42:06;7.50;;;3.05;;
48363;SDS011;34170;54.364;18.582;2023-05-07T01:44:34;10.52;;;4.47;;
48363;SDS011;34170;54.364;18.582;2023-05-07T01:47:02;15.68;;;4.85;;
48363;SDS011;34170;54.364;18.582;2023-05-07T01:49:30;8.40;;;4.30;;
48363;SDS011;34170;54.364;18.582;2023-05-07T01:51:58;8.40;;;4.32;;
48363;SDS011;34170;54.364;18.582;2023-05-07T01:54:26;11.43;;;4.45;;
48363;SDS011;34170;54.364;18.582;2023-05-07T01:56:58;10.52;;;4.70;;
48363;SDS011;34170;54.364;18.582;2023-05-07T01:59:26;11.55;;;4.68;;
48363;SDS011;34170;54.364;18.582;2023-05-07T02:01:54;11.32;;;4.75;;
48363;SDS011;34170;54.364;18.582;2023-05-07T02:04:22;15.80;;;4.93;;
48363;SDS011;34170;54.364;18.582;2023-05-07T02:06:50;10.80;;;4.68;;
48363;SDS011;34170;54.364;18.582;2023-05-07T02:09:18;12.38;;;4.57;;
48363;SDS011;34170;54.364;18.582;2023-05-07T02:11:48;11.10;;;4.72;;
48363;SDS011;34170;54.364;18.582;2023-05-07T02:14:18;8.85;;;3.95;;
48363;SDS011;34170;54.364;18.582;2023-05-07T02:16:47;9.88;;;4.60;;
48363;SDS011;34170;54.364;18.582;2023-05-07T02:19:15;10.57;;;4.13;;
48363;SDS011;34170;54.364;18.582;2023-05-07T02:21:43;9.90;;;4.88;;
48363;SDS011;34170;54.364;18.582;2023-05-07T02:24:10;18.27;;;9.93;;
48363;SDS011;34170;54.364;18.582;2023-05-07T02:26:38;10.65;;;4.72;;
48363;SDS011;34170;54.364;18.582;2023-05-07T02:29:06;14.02;;;5.00;;
48363;SDS011;34170;54.364;18.582;2023-05-07T02:31:34;11.32;;;4.47;;
48363;SDS011;34170;54.364;18.582;2023-05-07T02:34:01;8.40;;;4.00;;
48363;SDS011;34170;54.364;18.582;2023-05-07T02:36:29;8.55;;;4.38;;
48363;SDS011;34170;54.364;18.582;2023-05-07T02:39:03;11.55;;;4.40;;
48363;SDS011;34170;54.364;18.582;2023-05-07T02:41:30;9.02;;;4.28;;
48363;SDS011;34170;54.364;18.582;2023-05-07T02:43:58;12.98;;;4.75;;
48363;SDS011;34170;54.364;18.582;2023-05-07T02:46:26;8.73;;;4.75;;
48363;SDS011;34170;54.364;18.582;2023-05-07T02:49:00;10.45;;;4.32;;
48363;SDS011;34170;54.364;18.582;2023-05-07T02:51:29;8.50;;;4.55;;
48363;SDS011;34170;54.364;18.582;2023-05-07T02:54:00;10.48;;;5.20;;
48363;SDS011;34170;54.364;18.582;2023-05-07T02:56:29;10.82;;;4.53;;
48363;SDS011;34170;54.364;18.582;2023-05-07T02:58:57;8.73;;;4.60;;
48363;SDS011;34170;54.364;18.582;2023-05-07T03:01:28;7.32;;;4.43;;
48363;SDS011;34170;54.364;18.582;2023-05-07T03:04:04;7.63;;;4.22;;
48363;SDS011;34170;54.364;18.582;2023-05-07T03:06:32;12.68;;;5.43;;
48363;SDS011;34170;54.364;18.582;2023-05-07T03:09:00;13.20;;;5.53;;
48363;SDS011;34170;54.364;18.582;2023-05-07T03:11:27;18.35;;;8.10;;
48363;SDS011;34170;54.364;18.582;2023-05-07T03:13:55;7.05;;;4.32;;
48363;SDS011;34170;54.364;18.582;2023-05-07T03:16:22;12.00;;;4.93;;
48363;SDS011;34170;54.364;18.582;2023-05-07T03:18:50;10.52;;;5.03;;
48363;SDS011;34170;54.364;18.582;2023-05-07T03:21:17;8.65;;;4.68;;
48363;SDS011;34170;54.364;18.582;2023-05-07T03:23:45;8.23;;;4.43;;
48363;SDS011;34170;54.364;18.582;2023-05-07T03:26:12;10.30;;;4.68;;
48363;SDS011;34170;54.364;18.582;2023-05-07T03:28:41;7.55;;;4.50;;
48363;SDS011;34170;54.364;18.582;2023-05-07T03:31:11;11.48;;;4.85;;
48363;SDS011;34170;54.364;18.582;2023-05-07T03:33:49;9.90;;;4.70;;
48363;SDS011;34170;54.364;18.582;2023-05-07T03:36:21;9.18;;;5.00;;
48363;SDS011;34170;54.364;18.582;2023-05-07T03:38:49;8.05;;;4.20;;
48363;SDS011;34170;54.364;18.582;2023-05-07T03:41:20;7.60;;;3.92;;
48363;SDS011;34170;54.364;18.582;2023-05-07T03:43:47;10.85;;;4.22;;
48363;SDS011;34170;54.364;18.582;2023-05-07T03:46:15;8.80;;;4.05;;
48363;SDS011;34170;54.364;18.582;2023-05-07T03:48:44;7.82;;;4.10;;
48363;SDS011;34170;54.364;18.582;2023-05-07T03:51:13;8.45;;;3.85;;
48363;SDS011;34170;54.364;18.582;2023-05-07T03:53:40;7.78;;;4.28;;
48363;SDS011;34170;54.364;18.582;2023-05-07T03:56:08;10.60;;;4.60;;
48363;SDS011;34170;54.364;18.582;2023-05-07T03:58:38;8.18;;;3.85;;
48363;SDS011;34170;54.364;18.582;2023-05-07T04:01:09;7.78;;;3.90;;
48363;SDS011;34170;54.364;18.582;2023-05-07T04:03:36;8.85;;;3.83;;
48363;SDS011;34170;54.364;18.582;2023-05-07T04:06:04;7.13;;;3.95;;
48363;SDS011;34170;54.364;18.582;2023-05-07T04:08:34;8.57;;;3.97;;
48363;SDS011;34170;54.364;18.582;2023-05-07T04:11:02;8.68;;;3.50;;
48363;SDS011;34170;54.364;18.582;2023-05-07T04:13:32;6.75;;;3.25;;
48363;SDS011;34170;54.364;18.582;2023-05-07T04:16:02;7.18;;;3.78;;
48363;SDS011;34170;54.364;18.582;2023-05-07T04:18:33;9.15;;;4.30;;
48363;SDS011;34170;54.364;18.582;2023-05-07T04:21:01;9.60;;;3.83;;
48363;SDS011;34170;54.364;18.582;2023-05-07T04:23:28;8.00;;;4.18;;
48363;SDS011;34170;54.364;18.582;2023-05-07T04:25:58;7.43;;;3.65;;
48363;SDS011;34170;54.364;18.582;2023-05-07T04:28:35;9.85;;;3.80;;
48363;SDS011;34170;54.364;18.582;2023-05-07T04:31:03;9.73;;;4.20;;
48363;SDS011;34170;54.364;18.582;2023-05-07T04:33:33;5.47;;;3.90;;
48363;SDS011;34170;54.364;18.582;2023-05-07T04:36:01;9.57;;;3.28;;
48363;SDS011;34170;54.364;18.582;2023-05-07T04:38:33;8.43;;;3.63;;
48363;SDS011;34170;54.364;18.582;2023-05-07T04:41:03;6.57;;;3.38;;
48363;SDS011;34170;54.364;18.582;2023-05-07T04:43:35;6.95;;;3.10;;
48363;SDS011;34170;54.364;18.582;2023-05-07T04:46:02;9.65;;;3.40;;
48363;SDS011;34170;54.364;18.582;2023-05-07T04:48:30;8.98;;;3.30;;
48363;SDS011;34170;54.364;18.582;2023-05-07T04:50:59;6.53;;;2.70;;
48363;SDS011;34170;54.364;18.582;2023-05-07T04:53:27;9.27;;;3.70;;
48363;SDS011;34170;54.364;18.582;2023-05-07T04:55:56;7.90;;;3.25;;
48363;SDS011;34170;54.364;18.582;2023-05-07T04:58:29;6.53;;;2.97;;
48363;SDS011;34170;54.364;18.582;2023-05-07T05:00:59;10.15;;;3.50;;
48363;SDS011;34170;54.364;18.582;2023-05-07T05:03:27;5.00;;;3.08;;
48363;SDS011;34170;54.364;18.582;2023-05-07T05:05:55;6.90;;;3.17;;
48363;SDS011;34170;54.364;18.582;2023-05-07T05:08:29;3.47;;;2.28;;
48363;SDS011;34170;54.364;18.582;2023-05-07T05:10:57;7.70;;;2.53;;
48363;SDS011;34170;54.364;18.582;2023-05-07T05:13:25;6.00;;;3.10;;
48363;SDS011;34170;54.364;18.582;2023-05-07T05:15:52;5.25;;;2.47;;
48363;SDS011;34170;54.364;18.582;2023-05-07T05:18:20;5.22;;;2.53;;
48363;SDS011;34170;54.364;18.582;2023-05-07T05:20:48;3.92;;;2.50;;
48363;SDS011;34170;54.364;18.582;2023-05-07T05:23:15;6.25;;;2.55;;
48363;SDS011;34170;54.364;18.582;2023-05-07T05:25:43;5.07;;;2.58;;
48363;SDS011;34170;54.364;18.582;2023-05-07T05:28:13;4.72;;;2.00;;
48363;SDS011;34170;54.364;18.582;2023-05-07T05:30:41;3.78;;;2.40;;
48363;SDS011;34170;54.364;18.582;2023-05-07T05:33:08;3.92;;;2.00;;
48363;SDS011;34170;54.364;18.582;2023-05-07T05:35:36;9.38;;;3.08;;
48363;SDS011;34170;54.364;18.582;2023-05-07T05:38:06;5.95;;;2.30;;
48363;SDS011;34170;54.364;18.582;2023-05-07T05:40:34;5.40;;;1.98;;
48363;SDS011;34170;54.364;18.582;2023-05-07T05:43:01;4.13;;;2.03;;
48363;SDS011;34170;54.364;18.582;2023-05-07T05:45:29;4.55;;;2.10;;
48363;SDS011;34170;54.364;18.582;2023-05-07T05:47:56;4.65;;;2.40;;
48363;SDS011;34170;54.364;18.582;2023-05-07T05:50:24;4.70;;;2.40;;
48363;SDS011;34170;54.364;18.582;2023-05-07T05:52:53;6.10;;;1.90;;
48363;SDS011;34170;54.364;18.582;2023-05-07T05:55:21;3.97;;;1.92;;
48363;SDS011;34170;54.364;18.582;2023-05-07T05:57:50;5.13;;;2.67;;
48363;SDS011;34170;54.364;18.582;2023-05-07T06:00:18;3.47;;;2.00;;
48363;SDS011;34170;54.364;18.582;2023-05-07T06:02:57;2.85;;;2.00;;
48363;SDS011;34170;54.364;18.582;2023-05-07T06:05:25;3.13;;;1.67;;
48363;SDS011;34170;54.364;18.582;2023-05-07T06:07:55;4.88;;;2.10;;
48363;SDS011;34170;54.364;18.582;2023-05-07T06:10:23;4.00;;;2.22;;
48363;SDS011;34170;54.364;18.582;2023-05-07T06:12:51;5.53;;;1.90;;
48363;SDS011;34170;54.364;18.582;2023-05-07T06:15:19;3.40;;;2.17;;
48363;SDS011;34170;54.364;18.582;2023-05-07T06:17:47;4.15;;;2.38;;
48363;SDS011;34170;54.364;18.582;2023-05-07T06:20:16;5.97;;;2.55;;
48363;SDS011;34170;54.364;18.582;2023-05-07T06:22:44;5.32;;;2.10;;
48363;SDS011;34170;54.364;18.582;2023-05-07T06:25:13;3.35;;;1.90;;
48363;SDS011;34170;54.364;18.582;2023-05-07T06:27:42;3.60;;;2.30;;
48363;SDS011;34170;54.364;18.582;2023-05-07T06:30:10;2.53;;;1.80;;
48363;SDS011;34170;54.364;18.582;2023-05-07T06:32:39;2.85;;;1.58;;
48363;SDS011;34170;54.364;18.582;2023-05-07T06:35:08;2.63;;;1.70;;
48363;SDS011;34170;54.364;18.582;2023-05-07T06:37:38;5.28;;;2.45;;
48363;SDS011;34170;54.364;18.582;2023-05-07T06:40:07;3.08;;;1.98;;
48363;SDS011;34170;54.364;18.582;2023-05-07T06:42:38;8.07;;;2.15;;
48363;SDS011;34170;54.364;18.582;2023-05-07T06:45:38;5.13;;;2.30;;
48363;SDS011;34170;54.364;18.582;2023-05-07T06:48:08;3.05;;;1.75;;
48363;SDS011;34170;54.364;18.582;2023-05-07T06:50:45;4.28;;;2.20;;
48363;SDS011;34170;54.364;18.582;2023-05-07T06:53:12;3.38;;;2.05;;
48363;SDS011;34170;54.364;18.582;2023-05-07T06:55:40;5.78;;;1.90;;
48363;SDS011;34170;54.364;18.582;2023-05-07T06:58:09;4.13;;;2.05;;
48363;SDS011;34170;54.364;18.582;2023-05-07T07:00:37;3.45;;;2.05;;
48363;SDS011;34170;54.364;18.582;2023-05-07T07:03:04;5.28;;;2.00;;
48363;SDS011;34170;54.364;18.582;2023-05-07T07:05:32;3.10;;;2.05;;
48363;SDS011;34170;54.364;18.582;2023-05-07T07:08:02;5.60;;;2.85;;
48363;SDS011;34170;54.364;18.582;2023-05-07T07:10:30;4.57;;;2.80;;
48363;SDS011;34170;54.364;18.582;2023-05-07T07:12:57;7.57;;;2.80;;
48363;SDS011;34170;54.364;18.582;2023-05-07T07:15:25;6.35;;;2.85;;
48363;SDS011;34170;54.364;18.582;2023-05-07T07:17:54;7.43;;;2.97;;
48363;SDS011;34170;54.364;18.582;2023-05-07T07:20:23;7.28;;;2.97;;
48363;SDS011;34170;54.364;18.582;2023-05-07T07:22:51;6.55;;;3.35;;
48363;SDS011;34170;54.364;18.582;2023-05-07T07:25:19;8.57;;;3.03;;
48363;SDS011;34170;54.364;18.582;2023-05-07T07:27:47;5.40;;;3.05;;
48363;SDS011;34170;54.364;18.582;2023-05-07T07:30:15;7.50;;;3.03;;
48363;SDS011;34170;54.364;18.582;2023-05-07T07:32:46;5.40;;;2.88;;
48363;SDS011;34170;54.364;18.582;2023-05-07T07:35:15;5.88;;;3.25;;
48363;SDS011;34170;54.364;18.582;2023-05-07T07:37:43;5.93;;;2.65;;
48363;SDS011;34170;54.364;18.582;2023-05-07T07:40:13;6.47;;;2.55;;
48363;SDS011;34170;54.364;18.582;2023-05-07T07:42:41;5.47;;;2.88;;
48363;SDS011;34170;54.364;18.582;2023-05-07T07:45:10;4.65;;;2.78;;
48363;SDS011;34170;54.364;18.582;2023-05-07T07:47:41;5.57;;;2.72;;
48363;SDS011;34170;54.364;18.582;2023-05-07T07:50:09;5.95;;;3.03;;
48363;SDS011;34170;54.364;18.582;2023-05-07T07:52:41;6.35;;;2.55;;
48363;SDS011;34170;54.364;18.582;2023-05-07T07:55:10;6.00;;;2.83;;
48363;SDS011;34170;54.364;18.582;2023-05-07T07:57:38;5.28;;;2.88;;
48363;SDS011;34170;54.364;18.582;2023-05-07T08:00:06;5.22;;;2.63;;
48363;SDS011;34170;54.364;18.582;2023-05-07T08:02:42;4.10;;;2.38;;
48363;SDS011;34170;54.364;18.582;2023-05-07T08:05:17;5.32;;;2.55;;
48363;SDS011;34170;54.364;18.582;2023-05-07T08:07:45;7.25;;;2.35;;
48363;SDS011;34170;54.364;18.582;2023-05-07T08:10:22;4.75;;;2.10;;
48363;SDS011;34170;54.364;18.582;2023-05-07T08:12:56;4.63;;;2.47;;
48363;SDS011;34170;54.364;18.582;2023-05-07T08:15:24;4.97;;;2.00;;
48363;SDS011;34170;54.364;18.582;2023-05-07T08:17:51;4.85;;;2.10;;
48363;SDS011;34170;54.364;18.582;2023-05-07T08:20:19;4.03;;;2.13;;
48363;SDS011;34170;54.364;18.582;2023-05-07T08:22:47;5.82;;;1.95;;
48363;SDS011;34170;54.364;18.582;2023-05-07T08:25:15;5.32;;;2.10;;
48363;SDS011;34170;54.364;18.582;2023-05-07T08:27:42;4.93;;;2.13;;
48363;SDS011;34170;54.364;18.582;2023-05-07T08:30:12;5.95;;;2.30;;
48363;SDS011;34170;54.364;18.582;2023-05-07T08:32:40;3.65;;;1.98;;
48363;SDS011;34170;54.364;18.582;2023-05-07T08:35:08;3.10;;;2.30;;
48363;SDS011;34170;54.364;18.582;2023-05-07T08:37:36;2.70;;;1.67;;
48363;SDS011;34170;54.364;18.582;2023-05-07T08:40:04;5.30;;;1.60;;
48363;SDS011;34170;54.364;18.582;2023-05-07T08:42:38;3.75;;;1.70;;
48363;SDS011;34170;54.364;18.582;2023-05-07T08:45:08;2.63;;;1.70;;
48363;SDS011;34170;54.364;18.582;2023-05-07T08:47:44;5.93;;;2.38;;
48363;SDS011;34170;54.364;18.582;2023-05-07T08:50:21;3.38;;;1.92;;
48363;SDS011;34170;54.364;18.582;2023-05-07T08:52:50;4.10;;;1.88;;
48363;SDS011;34170;54.364;18.582;2023-05-07T08:55:19;6.53;;;1.90;;
48363;SDS011;34170;54.364;18.582;2023-05-07T08:57:47;7.85;;;2.28;;
48363;SDS011;34170;54.364;18.582;2023-05-07T09:00:16;4.80;;;1.92;;
48363;SDS011;34170;54.364;18.582;2023-05-07T09:02:48;2.95;;;1.60;;
48363;SDS011;34170;54.364;18.582;2023-05-07T09:05:15;9.18;;;2.50;;
48363;SDS011;34170;54.364;18.582;2023-05-07T09:07:43;5.50;;;2.10;;
48363;SDS011;34170;54.364;18.582;2023-05-07T09:10:13;4.38;;;2.00;;
48363;SDS011;34170;54.364;18.582;2023-05-07T09:12:42;2.80;;;1.67;;
48363;SDS011;34170;54.364;18.582;2023-05-07T09:15:12;5.78;;;2.50;;
48363;SDS011;34170;54.364;18.582;2023-05-07T09:17:40;3.33;;;1.50;;
48363;SDS011;34170;54.364;18.582;2023-05-07T09:20:09;4.50;;;1.70;;
48363;SDS011;34170;54.364;18.582;2023-05-07T09:22:38;5.70;;;1.63;;
48363;SDS011;34170;54.364;18.582;2023-05-07T09:25:10;3.67;;;1.58;;
48363;SDS011;34170;54.364;18.582;2023-05-07T09:27:38;6.07;;;2.10;;
48363;SDS011;34170;54.364;18.582;2023-05-07T09:30:06;5.22;;;1.77;;
48363;SDS011;34170;54.364;18.582;2023-05-07T09:32:35;6.28;;;1.63;;
48363;SDS011;34170;54.364;18.582;2023-05-07T09:35:14;3.72;;;1.73;;
48363;SDS011;34170;54.364;18.582;2023-05-07T09:37:47;2.78;;;1.30;;
48363;SDS011;34170;54.364;18.582;2023-05-07T09:40:28;3.30;;;1.45;;
48363;SDS011;34170;54.364;18.582;2023-05-07T09:43:11;4.82;;;2.00;;
48363;SDS011;34170;54.364;18.582;2023-05-07T09:45:54;2.58;;;1.38;;
48363;SDS011;34170;54.364;18.582;2023-05-07T09:48:24;3.03;;;1.67;;
48363;SDS011;34170;54.364;18.582;2023-05-07T09:50:55;4.88;;;1.65;;
48363;SDS011;34170;54.364;18.582;2023-05-07T09:53:29;3.35;;;1.38;;
48363;SDS011;34170;54.364;18.582;2023-05-07T09:56:00;1.73;;;1.00;;
48363;SDS011;34170;54.364;18.582;2023-05-07T09:58:31;4.22;;;1.63;;
48363;SDS011;34170;54.364;18.582;2023-05-07T10:01:00;4.10;;;1.55;;
48363;SDS011;34170;54.364;18.582;2023-05-07T10:03:29;2.58;;;1.25;;
48363;SDS011;34170;54.364;18.582;2023-05-07T10:06:04;4.35;;;1.45;;
48363;SDS011;34170;54.364;18.582;2023-05-07T10:08:32;3.65;;;1.40;;
48363;SDS011;34170;54.364;18.582;2023-05-07T10:11:02;2.13;;;1.05;;
48363;SDS011;34170;54.364;18.582;2023-05-07T10:13:31;3.85;;;1.67;;
48363;SDS011;34170;54.364;18.582;2023-05-07T10:16:03;5.95;;;2.30;;
48363;SDS011;34170;54.364;18.582;2023-05-07T10:18:37;3.85;;;1.45;;
48363;SDS011;34170;54.364;18.582;2023-05-07T10:21:22;4.10;;;2.20;;
48363;SDS011;34170;54.364;18.582;2023-05-07T10:23:57;4.53;;;2.40;;
48363;SDS011;34170;54.364;18.582;2023-05-07T10:26:30;5.45;;;2.33;;
48363;SDS011;34170;54.364;18.582;2023-05-07T10:32:11;3.60;;;2.00;;
48363;SDS011;34170;54.364;18.582;2023-05-07T10:34:54;7.03;;;2.22;;
48363;SDS011;34170;54.364;18.582;2023-05-07T10:37:26;8.85;;;2.42;;
48363;SDS011;34170;54.364;18.582;2023-05-07T10:39:54;3.05;;;1.60;;
48363;SDS011;34170;54.364;18.582;2023-05-07T10:42:22;4.47;;;1.63;;
48363;SDS011;34170;54.364;18.582;2023-05-07T10:44:52;4.95;;;2.00;;
48363;SDS011;34170;54.364;18.582;2023-05-07T10:47:24;5.18;;;2.20;;
48363;SDS011;34170;54.364;18.582;2023-05-07T10:52:36;3.90;;;2.00;;
48363;SDS011;34170;54.364;18.582;2023-05-07T10:57:55;4.25;;;1.90;;
48363;SDS011;34170;54.364;18.582;2023-05-07T11:03:09;6.68;;;2.28;;
48363;SDS011;34170;54.364;18.582;2023-05-07T11:06:14;5.95;;;1.67;;
48363;SDS011;34170;54.364;18.582;2023-05-07T11:09:00;3.67;;;1.70;;
48363;SDS011;34170;54.364;18.582;2023-05-07T11:11:48;3.30;;;1.42;;
48363;SDS011;34170;54.364;18.582;2023-05-07T11:17:11;4.03;;;2.10;;
48363;SDS011;34170;54.364;18.582;2023-05-07T11:25:17;4.43;;;2.00;;
48363;SDS011;34170;54.364;18.582;2023-05-07T11:28:03;4.30;;;1.98;;
48363;SDS011;34170;54.364;18.582;2023-05-07T11:30:33;3.88;;;2.20;;
48363;SDS011;34170;54.364;18.582;2023-05-07T11:33:02;9.02;;;2.42;;
48363;SDS011;34170;54.364;18.582;2023-05-07T11:35:33;3.50;;;1.60;;
48363;SDS011;34170;54.364;18.582;2023-05-07T11:38:05;5.40;;;2.00;;
48363;SDS011;34170;54.364;18.582;2023-05-07T11:40:34;5.65;;;2.40;;
48363;SDS011;34170;54.364;18.582;2023-05-07T11:43:10;5.00;;;2.47;;
48363;SDS011;34170;54.364;18.582;2023-05-07T11:45:38;4.45;;;2.63;;
48363;SDS011;34170;54.364;18.582;2023-05-07T11:48:05;4.80;;;2.40;;
48363;SDS011;34170;54.364;18.582;2023-05-07T11:50:33;7.10;;;2.40;;
48363;SDS011;34170;54.364;18.582;2023-05-07T11:53:00;5.15;;;1.80;;
48363;SDS011;34170;54.364;18.582;2023-05-07T11:55:27;4.22;;;1.73;;
48363;SDS011;34170;54.364;18.582;2023-05-07T11:57:55;3.42;;;1.80;;
48363;SDS011;34170;54.364;18.582;2023-05-07T12:00:22;5.80;;;1.88;;
48363;SDS011;34170;54.364;18.582;2023-05-07T12:02:50;5.30;;;1.60;;
48363;SDS011;34170;54.364;18.582;2023-05-07T12:05:17;3.83;;;1.45;;
48363;SDS011;34170;54.364;18.582;2023-05-07T12:07:44;5.07;;;1.55;;
48363;SDS011;34170;54.364;18.582;2023-05-07T12:10:12;6.25;;;1.55;;
48363;SDS011;34170;54.364;18.582;2023-05-07T12:12:40;3.35;;;1.88;;
48363;SDS011;34170;54.364;18.582;2023-05-07T12:15:13;5.90;;;1.95;;
48363;SDS011;34170;54.364;18.582;2023-05-07T12:17:43;2.88;;;1.85;;
48363;SDS011;34170;54.364;18.582;2023-05-07T12:20:11;4.28;;;1.70;;
48363;SDS011;34170;54.364;18.582;2023-05-07T12:22:40;6.32;;;1.80;;
48363;SDS011;34170;54.364;18.582;2023-05-07T12:25:08;4.50;;;1.55;;
48363;SDS011;34170;54.364;18.582;2023-05-07T12:27:36;5.38;;;1.63;;
48363;SDS011;34170;54.364;18.582;2023-05-07T12:30:06;5.90;;;1.80;;
48363;SDS011;34170;54.364;18.582;2023-05-07T12:32:37;4.05;;;1.60;;
48363;SDS011;34170;54.364;18.582;2023-05-07T12:35:05;4.40;;;2.30;;
48363;SDS011;34170;54.364;18.582;2023-05-07T12:37:33;5.13;;;1.92;;
48363;SDS011;34170;54.364;18.582;2023-05-07T12:40:03;2.78;;;1.55;;
48363;SDS011;34170;54.364;18.582;2023-05-07T12:42:35;4.70;;;1.60;;
48363;SDS011;34170;54.364;18.582;2023-05-07T12:45:22;4.80;;;2.20;;
48363;SDS011;34170;54.364;18.582;2023-05-07T12:47:50;3.83;;;1.90;;
48363;SDS011;34170;54.364;18.582;2023-05-07T12:50:17;4.22;;;2.17;;
48363;SDS011;34170;54.364;18.582;2023-05-07T12:52:45;4.95;;;1.98;;
48363;SDS011;34170;54.364;18.582;2023-05-07T12:55:15;5.13;;;1.95;;
48363;SDS011;34170;54.364;18.582;2023-05-07T12:57:45;5.25;;;1.98;;
48363;SDS011;34170;54.364;18.582;2023-05-07T13:00:15;5.70;;;2.78;;
48363;SDS011;34170;54.364;18.582;2023-05-07T13:02:43;4.15;;;1.75;;
48363;SDS011;34170;54.364;18.582;2023-05-07T13:05:12;3.08;;;1.88;;
48363;SDS011;34170;54.364;18.582;2023-05-07T13:07:40;5.65;;;2.90;;
48363;SDS011;34170;54.364;18.582;2023-05-07T13:10:09;3.67;;;1.92;;
48363;SDS011;34170;54.364;18.582;2023-05-07T13:12:36;6.30;;;2.00;;
48363;SDS011;34170;54.364;18.582;2023-05-07T13:15:04;8.30;;;1.90;;
48363;SDS011;34170;54.364;18.582;2023-05-07T13:17:31;4.40;;;2.05;;
48363;SDS011;34170;54.364;18.582;2023-05-07T13:19:59;3.90;;;2.15;;
48363;SDS011;34170;54.364;18.582;2023-05-07T13:22:26;4.82;;;2.60;;
48363;SDS011;34170;54.364;18.582;2023-05-07T13:24:54;4.03;;;2.45;;
48363;SDS011;34170;54.364;18.582;2023-05-07T13:27:21;4.57;;;2.13;;
48363;SDS011;34170;54.364;18.582;2023-05-07T13:29:49;4.22;;;2.20;;
48363;SDS011;34170;54.364;18.582;2023-05-07T13:32:16;3.30;;;2.00;;
48363;SDS011;34170;54.364;18.582;2023-05-07T13:34:44;4.60;;;1.90;;
48363;SDS011;34170;54.364;18.582;2023-05-07T13:37:11;5.13;;;2.03;;
48363;SDS011;34170;54.364;18.582;2023-05-07T13:39:39;3.20;;;1.60;;
48363;SDS011;34170;54.364;18.582;2023-05-07T13:42:07;3.50;;;1.75;;
48363;SDS011;34170;54.364;18.582;2023-05-07T13:44:35;4.57;;;1.88;;
48363;SDS011;34170;54.364;18.582;2023-05-07T13:47:02;3.30;;;1.67;;
48363;SDS011;34170;54.364;18.582;2023-05-07T13:49:30;3.33;;;1.75;;
48363;SDS011;34170;54.364;18.582;2023-05-07T13:51:57;6.13;;;3.67;;
48363;SDS011;34170;54.364;18.582;2023-05-07T13:54:24;5.43;;;1.83;;
48363;SDS011;34170;54.364;18.582;2023-05-07T13:56:52;3.42;;;1.90;;
48363;SDS011;34170;54.364;18.582;2023-05-07T13:59:20;4.05;;;1.90;;
48363;SDS011;34170;54.364;18.582;2023-05-07T14:01:47;5.00;;;1.92;;
48363;SDS011;34170;54.364;18.582;2023-05-07T14:04:15;4.28;;;2.10;;
48363;SDS011;34170;54.364;18.582;2023-05-07T14:06:43;4.30;;;2.10;;
48363;SDS011;34170;54.364;18.582;2023-05-07T14:09:10;4.35;;;1.60;;
48363;SDS011;34170;54.364;18.582;2023-05-07T14:11:40;5.57;;;1.95;;
48363;SDS011;34170;54.364;18.582;2023-05-07T14:14:08;6.95;;;1.83;;
48363;SDS011;34170;54.364;18.582;2023-05-07T14:16:38;4.32;;;2.05;;
48363;SDS011;34170;54.364;18.582;2023-05-07T14:19:06;5.10;;;2.42;;
48363;SDS011;34170;54.364;18.582;2023-05-07T14:21:33;7.57;;;2.63;;
48363;SDS011;34170;54.364;18.582;2023-05-07T14:24:01;9.02;;;2.42;;
48363;SDS011;34170;54.364;18.582;2023-05-07T14:26:28;5.28;;;2.22;;
48363;SDS011;34170;54.364;18.582;2023-05-07T14:28:56;7.28;;;2.80;;
48363;SDS011;34170;54.364;18.582;2023-05-07T14:31:25;7.63;;;2.90;;
48363;SDS011;34170;54.364;18.582;2023-05-07T14:33:53;5.50;;;2.75;;
48363;SDS011;34170;54.364;18.582;2023-05-07T14:36:20;6.75;;;2.63;;
48363;SDS011;34170;54.364;18.582;2023-05-07T14:38:49;7.93;;;2.42;;
48363;SDS011;34170;54.364;18.582;2023-05-07T14:41:17;11.75;;;3.15;;
48363;SDS011;34170;54.364;18.582;2023-05-07T14:43:44;7.40;;;2.42;;
48363;SDS011;34170;54.364;18.582;2023-05-07T14:46:17;6.53;;;2.60;;
48363;SDS011;34170;54.364;18.582;2023-05-07T14:48:45;10.80;;;2.75;;
48363;SDS011;34170;54.364;18.582;2023-05-07T14:51:13;5.68;;;2.33;;
48363;SDS011;34170;54.364;18.582;2023-05-07T14:53:41;8.48;;;2.92;;
48363;SDS011;34170;54.364;18.582;2023-05-07T14:56:08;8.32;;;2.65;;
48363;SDS011;34170;54.364;18.582;2023-05-07T14:58:36;8.18;;;3.03;;
48363;SDS011;34170;54.364;18.582;2023-05-07T15:01:04;6.97;;;2.45;;
48363;SDS011;34170;54.364;18.582;2023-05-07T15:03:33;6.25;;;2.63;;
48363;SDS011;34170;54.364;18.582;2023-05-07T15:06:01;8.40;;;2.30;;